Time;durP1;ratioP1;P1;durP2;ratioP2;P2;SDS_P1;SDS_P2;PMS_P1;PMS_P2;Temp;Humidity;BMP_temperature;BMP_pressure;BME280_temperature;BME280_humidity;BME280_pressure;Samples;Min_cycle;Max_cycle;Signal;HPM_P1;HPM_P2
2022/03/18 00:01:20;;;;;;;4.07;3.07;;;10.10;99.90;;;;;;5069921;28;20474;-48
2022/03/18 00:03:48;;;;;;;3.63;2.60;;;10.10;99.90;;;;;;5070144;28;20545;-47
2022/03/18 00:06:17;;;;;;;3.50;2.83;;;10.10;99.90;;;;;;5069261;28;20442;-46
2022/03/18 00:08:46;;;;;;;3.47;3.17;;;10.10;99.90;;;;;;5071479;28;20426;-47
2022/03/18 00:11:16;;;;;;;3.27;2.97;;;10.10;99.90;;;;;;5070714;28;20809;-46
2022/03/18 00:13:44;;;;;;;4.40;3.00;;;10.10;99.90;;;;;;5070554;28;20572;-48
2022/03/18 00:16:12;;;;;;;6.23;3.67;;;10.10;99.90;;;;;;5069013;28;20511;-47
2022/03/18 00:18:40;;;;;;;3.83;3.10;;;10.10;99.90;;;;;;5070510;28;20478;-47
2022/03/18 00:21:08;;;;;;;3.00;2.80;;;10.00;99.90;;;;;;5069897;28;20498;-47
2022/03/18 00:23:36;;;;;;;5.57;3.30;;;10.00;99.90;;;;;;5070425;28;20481;-48
2022/03/18 00:26:05;;;;;;;3.60;3.10;;;10.00;99.90;;;;;;5070248;28;20426;-49
2022/03/18 00:28:34;;;;;;;3.23;2.83;;;10.00;99.90;;;;;;5049275;28;20808;-47
2022/03/18 00:31:03;;;;;;;2.97;2.67;;;10.00;99.90;;;;;;5051276;28;20473;-47
2022/03/18 00:33:32;;;;;;;4.40;3.73;;;10.00;99.90;;;;;;5034334;28;20471;-46
2022/03/18 00:36:00;;;;;;;4.10;3.70;;;10.00;99.90;;;;;;5069614;28;20716;-48
2022/03/18 00:38:29;;;;;;;4.97;2.93;;;10.00;99.90;;;;;;5069645;28;20496;-49
2022/03/18 00:40:57;;;;;;;3.33;3.00;;;10.00;99.90;;;;;;5052085;28;20840;-47
2022/03/18 00:43:25;;;;;;;3.03;2.77;;;10.00;99.90;;;;;;5069352;28;20932;-47
2022/03/18 00:45:55;;;;;;;3.40;2.30;;;10.00;99.90;;;;;;5069527;28;20881;-48
2022/03/18 00:53:55;;;;;;;5.50;3.50;;;10.00;99.90;;;;;;5038647;28;20998;-49
2022/03/18 00:56:23;;;;;;;3.97;3.47;;;10.00;99.90;;;;;;5049507;28;20431;-50
2022/03/18 00:58:51;;;;;;;4.70;3.33;;;10.00;99.90;;;;;;5050123;28;20463;-49
2022/03/18 01:01:20;;;;;;;3.10;2.80;;;10.00;99.90;;;;;;5060716;28;20470;-49
2022/03/18 01:03:49;;;;;;;3.40;3.10;;;10.00;99.90;;;;;;5032317;28;20447;-48
2022/03/18 01:06:17;;;;;;;3.70;3.33;;;10.00;99.90;;;;;;5063659;28;20438;-48
2022/03/18 01:08:45;;;;;;;3.80;3.40;;;10.00;99.90;;;;;;5070175;28;20426;-47
2022/03/18 01:11:13;;;;;;;3.20;2.90;;;9.90;99.90;;;;;;5069934;28;20521;-46
2022/03/18 01:13:41;;;;;;;4.53;3.60;;;9.90;99.90;;;;;;5069449;28;20469;-50
2022/03/18 01:16:10;;;;;;;3.87;3.57;;;9.90;99.90;;;;;;5069208;28;20950;-48
2022/03/18 01:18:39;;;;;;;3.20;2.90;;;9.90;99.90;;;;;;5069075;28;20984;-49
2022/03/18 01:21:07;;;;;;;3.40;3.10;;;9.90;99.90;;;;;;5069625;28;20449;-48
2022/03/18 01:23:35;;;;;;;4.10;3.70;;;9.90;99.90;;;;;;5049689;28;20481;-49
2022/03/18 01:26:03;;;;;;;3.20;2.83;;;9.90;99.90;;;;;;5069532;28;20942;-49
2022/03/18 01:28:31;;;;;;;3.30;3.00;;;9.90;99.90;;;;;;5069141;28;20454;-48
2022/03/18 01:30:59;;;;;;;4.47;3.33;;;9.90;99.90;;;;;;5061057;28;20445;-49
2022/03/18 01:33:28;;;;;;;3.63;3.27;;;9.90;99.90;;;;;;5049337;28;20466;-47
2022/03/18 01:35:57;;;;;;;4.30;3.30;;;9.90;99.90;;;;;;5049489;28;20466;-46
2022/03/18 01:38:25;;;;;;;4.90;3.50;;;9.90;99.90;;;;;;5049527;28;20717;-48
2022/03/18 01:40:54;;;;;;;4.37;3.20;;;9.90;99.90;;;;;;5049898;28;20474;-47
2022/03/18 01:43:22;;;;;;;3.87;3.47;;;9.90;99.90;;;;;;5064982;28;20454;-48
2022/03/18 01:45:51;;;;;;;3.30;2.87;;;9.90;99.90;;;;;;5054090;28;20473;-47
2022/03/18 01:48:19;;;;;;;3.30;2.80;;;9.80;99.90;;;;;;5049143;28;20463;-47
2022/03/18 01:50:47;;;;;;;4.20;3.53;;;9.80;99.90;;;;;;5050578;28;20477;-47
2022/03/18 01:53:17;;;;;;;3.70;3.40;;;9.80;99.90;;;;;;5070064;28;20481;-46
2022/03/18 01:55:45;;;;;;;3.20;2.90;;;9.80;99.90;;;;;;5070950;28;20418;-48
2022/03/18 01:58:13;;;;;;;3.57;3.27;;;9.80;99.90;;;;;;5052924;28;21054;-49
2022/03/18 02:00:42;;;;;;;4.37;3.97;;;9.80;99.90;;;;;;5055644;28;20553;-48
2022/03/18 02:03:10;;;;;;;3.47;3.17;;;9.80;99.90;;;;;;5053148;28;20462;-47
2022/03/18 02:05:40;;;;;;;3.47;3.17;;;9.80;99.90;;;;;;5052918;28;20930;-49
2022/03/18 02:08:08;;;;;;;4.00;3.10;;;9.80;99.90;;;;;;5059239;28;20561;-48
2022/03/18 02:10:38;;;;;;;3.30;3.00;;;9.80;99.90;;;;;;5053197;28;20863;-49
2022/03/18 02:13:06;;;;;;;7.00;4.00;;;9.80;99.90;;;;;;5052422;28;20849;-48
2022/03/18 02:15:34;;;;;;;3.27;2.97;;;9.80;99.90;;;;;;5052897;28;20443;-48
2022/03/18 02:18:04;;;;;;;4.17;3.03;;;9.80;99.90;;;;;;5069902;28;20493;-46
2022/03/18 02:20:33;;;;;;;3.43;3.07;;;9.80;99.90;;;;;;5073457;28;20484;-47
2022/03/18 02:23:02;;;;;;;3.03;2.70;;;9.80;99.90;;;;;;5065353;28;20557;-49
2022/03/18 02:25:31;;;;;;;3.40;3.07;;;9.80;99.90;;;;;;5034922;28;20794;-47
2022/03/18 02:28:01;;;;;;;3.80;3.50;;;9.80;99.90;;;;;;5062340;28;20481;-46
2022/03/18 02:30:32;;;;;;;3.00;2.80;;;9.80;99.90;;;;;;5072532;28;20488;-47
2022/03/18 02:33:01;;;;;;;3.00;2.80;;;9.80;99.90;;;;;;5070814;28;20500;-49
2022/03/18 02:35:30;;;;;;;6.07;3.17;;;9.80;99.90;;;;;;5072857;28;20424;-48
2022/03/18 02:37:58;;;;;;;4.60;3.40;;;9.70;99.90;;;;;;5061809;28;20540;-46
2022/03/18 02:40:29;;;;;;;3.17;2.90;;;9.70;99.90;;;;;;5053316;28;20877;-46
2022/03/18 02:42:58;;;;;;;4.00;3.17;;;9.70;99.90;;;;;;5072280;28;20473;-47
2022/03/18 02:45:27;;;;;;;3.57;3.07;;;9.70;99.90;;;;;;5071606;28;20832;-48
2022/03/18 02:47:55;;;;;;;4.33;3.37;;;9.70;99.90;;;;;;5071994;28;20466;-48
2022/03/18 02:50:23;;;;;;;3.57;2.93;;;9.70;99.90;;;;;;5072832;28;21055;-47
2022/03/18 02:52:51;;;;;;;2.70;2.50;;;9.70;99.90;;;;;;5070902;28;20454;-47
2022/03/18 02:55:19;;;;;;;3.03;2.30;;;9.70;99.90;;;;;;5071630;28;20937;-46
2022/03/18 02:57:49;;;;;;;3.20;2.70;;;9.70;99.90;;;;;;5071714;28;20527;-46
2022/03/18 03:00:17;;;;;;;3.63;3.03;;;9.70;99.90;;;;;;5053062;28;20477;-47
2022/03/18 03:02:45;;;;;;;3.57;2.83;;;9.70;99.90;;;;;;5071489;28;20470;-50
2022/03/18 03:08:02;;;;;;;3.00;2.70;;;9.70;99.90;;;;;;5067097;28;20517;-47
2022/03/18 03:10:31;;;;;;;3.70;2.50;;;9.70;99.90;;;;;;5072331;28;20421;-48
2022/03/18 03:13:03;;;;;;;3.73;3.40;;;9.70;99.90;;;;;;5051582;28;20471;-48
2022/03/18 03:15:32;;;;;;;3.57;3.27;;;9.70;99.90;;;;;;5063155;28;20446;-50
2022/03/18 03:18:00;;;;;;;3.50;3.20;;;9.70;99.90;;;;;;5071616;28;20495;-47
2022/03/18 03:20:28;;;;;;;3.30;3.00;;;9.70;99.90;;;;;;5057212;28;20462;-47
2022/03/18 03:22:57;;;;;;;3.97;3.13;;;9.70;99.90;;;;;;5052814;28;20489;-49
2022/03/18 03:25:25;;;;;;;4.03;3.23;;;9.70;99.90;;;;;;5051090;28;20941;-49
2022/03/18 03:27:53;;;;;;;3.03;2.73;;;9.60;99.90;;;;;;5051196;28;20454;-48
2022/03/18 03:30:24;;;;;;;3.60;3.20;;;9.60;99.90;;;;;;5053508;28;20524;-49
2022/03/18 03:32:53;;;;;;;3.53;3.23;;;9.60;99.90;;;;;;5051215;28;20554;-48
2022/03/18 03:35:21;;;;;;;3.00;2.70;;;9.60;99.90;;;;;;5051161;28;20443;-49
2022/03/18 03:37:49;;;;;;;3.60;3.20;;;9.60;99.90;;;;;;5066443;28;20461;-47
2022/03/18 03:40:19;;;;;;;3.73;2.80;;;9.60;99.90;;;;;;5060442;28;20482;-46
2022/03/18 03:42:48;;;;;;;4.27;3.30;;;9.60;99.90;;;;;;5051274;28;20468;-47
2022/03/18 03:45:16;;;;;;;3.27;3.00;;;9.60;99.90;;;;;;5060634;28;20561;-49
2022/03/18 03:47:45;;;;;;;3.87;2.90;;;9.60;99.90;;;;;;5051569;28;20506;-49
2022/03/18 03:50:14;;;;;;;3.57;2.80;;;9.60;99.90;;;;;;5052246;28;20439;-47
2022/03/18 03:52:42;;;;;;;4.70;3.17;;;9.60;99.90;;;;;;5065716;28;20486;-47
2022/03/18 03:55:13;;;;;;;3.50;3.20;;;9.60;99.90;;;;;;5054015;28;20450;-49
2022/03/18 03:57:41;;;;;;;3.43;2.57;;;9.60;99.90;;;;;;5051791;28;20508;-50
2022/03/18 04:00:11;;;;;;;2.90;2.70;;;9.60;99.90;;;;;;5052051;28;20513;-48
2022/03/18 04:02:39;;;;;;;3.43;3.13;;;9.60;99.90;;;;;;5051707;28;20515;-48
2022/03/18 04:05:10;;;;;;;2.90;2.60;;;9.60;99.90;;;;;;5071350;28;20430;-48
2022/03/18 04:07:39;;;;;;;3.60;3.00;;;9.60;99.90;;;;;;5068370;28;20481;-49
2022/03/18 04:10:10;;;;;;;3.83;3.30;;;9.50;99.90;;;;;;5071260;28;20465;-48
2022/03/18 04:12:39;;;;;;;3.67;3.37;;;9.50;99.90;;;;;;5069919;28;20462;-47
2022/03/18 04:15:09;;;;;;;2.60;2.40;;;9.50;99.90;;;;;;5069302;28;20434;-49
2022/03/18 04:17:38;;;;;;;3.10;2.53;;;9.50;99.90;;;;;;5049927;28;20473;-47
2022/03/18 04:20:10;;;;;;;5.10;3.30;;;9.50;99.90;;;;;;5050538;28;20434;-47
2022/03/18 04:22:39;;;;;;;3.50;2.70;;;9.50;99.90;;;;;;5064108;28;20511;-48
2022/03/18 04:25:09;;;;;;;3.77;3.47;;;9.50;99.90;;;;;;5064139;28;20462;-50
2022/03/18 04:27:38;;;;;;;4.07;3.47;;;9.50;99.90;;;;;;5070374;28;20558;-49
2022/03/18 04:30:08;;;;;;;3.57;3.20;;;9.50;99.90;;;;;;5063479;28;20803;-49
2022/03/18 04:32:37;;;;;;;2.87;2.63;;;9.50;99.90;;;;;;5050000;28;20477;-49
2022/03/18 04:35:06;;;;;;;2.80;2.60;;;9.50;99.90;;;;;;5050132;28;20485;-47
2022/03/18 04:37:35;;;;;;;3.07;2.80;;;9.50;99.90;;;;;;5063299;28;20507;-49
2022/03/18 04:40:04;;;;;;;3.23;2.63;;;9.50;99.90;;;;;;5052077;28;20427;-49
2022/03/18 04:42:32;;;;;;;3.13;2.83;;;9.50;99.90;;;;;;5050147;28;20885;-49
2022/03/18 04:45:00;;;;;;;2.83;2.20;;;9.50;99.90;;;;;;5057536;28;20462;-48
2022/03/18 04:47:30;;;;;;;4.03;3.33;;;9.50;99.90;;;;;;5070292;28;20458;-48
2022/03/18 04:49:58;;;;;;;2.93;2.73;;;9.40;99.90;;;;;;5053870;28;20423;-49
2022/03/18 04:52:26;;;;;;;2.67;2.20;;;9.40;99.90;;;;;;5061503;28;20544;-49
2022/03/18 04:54:56;;;;;;;3.23;2.77;;;9.40;99.90;;;;;;5057352;28;20431;-47
2022/03/18 04:57:24;;;;;;;3.40;2.97;;;9.40;99.90;;;;;;5049871;28;20497;-48
2022/03/18 04:59:54;;;;;;;3.00;2.67;;;9.40;99.90;;;;;;5054650;28;20831;-47
2022/03/18 05:02:22;;;;;;;3.33;3.03;;;9.40;99.90;;;;;;5068731;28;20468;-47
2022/03/18 05:04:50;;;;;;;3.60;2.93;;;9.40;99.90;;;;;;5065733;28;20474;-50
2022/03/18 05:07:19;;;;;;;3.20;2.80;;;9.40;99.90;;;;;;5060725;28;20514;-49
2022/03/18 05:09:48;;;;;;;3.00;2.70;;;9.40;99.90;;;;;;5061653;28;20435;-48
2022/03/18 05:12:19;;;;;;;3.03;2.53;;;9.40;99.90;;;;;;5066864;28;20470;-48
2022/03/18 05:14:53;;;;;;;2.87;2.60;;;9.40;99.90;;;;;;5068336;28;20958;-49
2022/03/18 05:17:21;;;;;;;5.50;2.83;;;9.40;99.90;;;;;;5069380;28;20511;-48
2022/03/18 05:19:49;;;;;;;3.37;2.60;;;9.40;99.90;;;;;;5070010;28;20437;-48
2022/03/18 05:22:18;;;;;;;3.20;2.77;;;9.40;99.90;;;;;;5067532;28;20536;-47
2022/03/18 05:24:46;;;;;;;2.90;2.43;;;9.40;99.90;;;;;;5069097;28;20441;-48
2022/03/18 05:27:14;;;;;;;2.93;2.70;;;9.30;99.90;;;;;;5070493;28;20469;-47
2022/03/18 05:29:44;;;;;;;3.43;2.50;;;9.30;99.90;;;;;;5073600;28;21017;-47
2022/03/18 05:32:12;;;;;;;3.33;2.57;;;9.30;99.90;;;;;;5072554;28;20462;-46
2022/03/18 05:34:40;;;;;;;2.70;2.50;;;9.30;99.90;;;;;;5072080;28;20994;-48
2022/03/18 05:37:09;;;;;;;2.83;2.63;;;9.30;99.90;;;;;;5060386;28;20495;-47
2022/03/18 05:39:37;;;;;;;4.33;3.00;;;9.30;99.90;;;;;;5039405;28;20737;-46
2022/03/18 05:42:06;;;;;;;3.33;2.80;;;9.30;99.90;;;;;;5053439;28;20545;-45
2022/03/18 05:44:34;;;;;;;2.33;2.20;;;9.30;99.90;;;;;;5068686;28;20446;-47
2022/03/18 05:47:03;;;;;;;2.83;2.60;;;9.30;99.90;;;;;;5072247;28;20554;-49
2022/03/18 05:49:32;;;;;;;3.50;3.20;;;9.30;99.90;;;;;;5073897;28;20452;-47
2022/03/18 05:52:00;;;;;;;2.53;2.33;;;9.30;99.90;;;;;;5072196;28;20462;-47
2022/03/18 05:54:29;;;;;;;3.47;3.17;;;9.30;99.90;;;;;;5073116;28;20782;-46
2022/03/18 05:56:56;;;;;;;3.30;2.97;;;9.30;99.90;;;;;;5073227;28;20462;-48
2022/03/18 05:59:25;;;;;;;3.47;2.50;;;9.30;99.90;;;;;;5073546;28;20425;-49
2022/03/18 06:01:54;;;;;;;4.10;3.20;;;9.30;99.90;;;;;;5071076;28;20521;-49
2022/03/18 06:04:25;;;;;;;3.60;2.77;;;9.30;99.90;;;;;;5072865;28;20453;-48
2022/03/18 06:06:53;;;;;;;3.30;2.97;;;9.30;99.90;;;;;;5071616;28;20462;-49
2022/03/18 06:12:08;;;;;;;4.23;3.50;;;9.20;99.90;;;;;;5051777;28;20462;-48
2022/03/18 06:14:36;;;;;;;3.60;3.20;;;9.20;99.90;;;;;;5072592;28;20852;-48
2022/03/18 06:17:06;;;;;;;3.23;2.90;;;9.20;99.90;;;;;;5072084;28;20458;-48
2022/03/18 06:19:35;;;;;;;3.73;3.43;;;9.20;99.90;;;;;;5073343;28;20425;-48
2022/03/18 06:22:04;;;;;;;4.13;3.57;;;9.20;99.90;;;;;;5070658;28;20890;-47
2022/03/18 06:24:32;;;;;;;3.38;3.08;;;9.20;99.90;;;;;;5072889;28;20422;-48
2022/03/18 06:27:02;;;;;;;3.47;3.03;;;9.20;99.90;;;;;;5072459;28;20627;-48
2022/03/18 06:29:31;;;;;;;3.67;3.13;;;9.20;99.90;;;;;;5072985;28;20894;-46
2022/03/18 06:32:00;;;;;;;5.23;3.20;;;9.20;99.90;;;;;;5071471;28;20481;-46
2022/03/18 06:34:28;;;;;;;4.50;3.40;;;9.20;99.90;;;;;;5054682;28;20945;-46
2022/03/18 06:37:00;;;;;;;4.40;4.00;;;9.20;99.90;;;;;;5071655;28;20449;-49
2022/03/18 06:39:28;;;;;;;4.40;3.80;;;9.20;99.90;;;;;;5071626;28;20517;-48
2022/03/18 06:41:56;;;;;;;4.37;3.90;;;9.10;99.90;;;;;;5065868;28;20745;-47
2022/03/18 06:44:24;;;;;;;4.50;3.47;;;9.10;99.90;;;;;;5063724;28;20430;-47
2022/03/18 06:46:52;;;;;;;4.93;3.10;;;9.20;99.90;;;;;;5071334;28;20480;-49
2022/03/18 06:49:21;;;;;;;5.70;3.13;;;9.10;99.90;;;;;;5056480;28;20490;-49
2022/03/18 06:51:49;;;;;;;4.30;3.67;;;9.10;99.90;;;;;;5063731;28;20466;-48
2022/03/18 06:54:19;;;;;;;3.45;3.15;;;9.10;99.90;;;;;;5051139;28;20930;-47
2022/03/18 06:56:47;;;;;;;3.83;3.53;;;9.10;99.90;;;;;;5052047;28;20224;-48
2022/03/18 06:59:15;;;;;;;3.33;3.00;;;9.10;99.90;;;;;;5052568;28;20475;-49
2022/03/18 07:01:43;;;;;;;4.30;3.00;;;9.10;99.90;;;;;;5059566;28;20483;-48
2022/03/18 07:04:11;;;;;;;4.07;3.20;;;9.10;99.90;;;;;;5072026;28;20434;-46
2022/03/18 07:06:40;;;;;;;2.88;2.58;;;9.10;99.90;;;;;;5070534;28;20479;-47
2022/03/18 07:09:08;;;;;;;3.72;2.55;;;9.20;99.90;;;;;;5072446;28;20726;-50
2022/03/18 07:11:38;;;;;;;3.60;3.07;;;9.10;99.90;;;;;;5071790;28;20735;-47
2022/03/18 07:14:06;;;;;;;3.67;3.33;;;9.10;99.90;;;;;;5051888;28;20472;-47
2022/03/18 07:19:19;;;;;;;4.27;3.20;;;9.10;99.90;;;;;;5071322;28;20457;-49
2022/03/18 07:21:47;;;;;;;4.00;3.10;;;9.10;99.90;;;;;;5070557;28;20479;-46
2022/03/18 07:24:16;;;;;;;4.50;3.63;;;9.10;99.90;;;;;;5070016;28;20886;-49
2022/03/18 07:26:45;;;;;;;4.40;3.60;;;9.20;99.90;;;;;;5051614;28;20535;-49
2022/03/18 07:29:14;;;;;;;3.53;3.20;;;9.20;99.90;;;;;;5056466;28;20644;-48
2022/03/18 07:31:42;;;;;;;5.60;4.00;;;9.20;99.90;;;;;;5070880;28;20966;-47
2022/03/18 07:34:10;;;;;;;3.83;3.50;;;9.20;99.90;;;;;;5071453;28;20447;-48
2022/03/18 07:36:38;;;;;;;4.80;3.50;;;9.20;99.90;;;;;;5052638;28;20438;-46
2022/03/18 07:39:06;;;;;;;3.87;2.63;;;9.20;99.90;;;;;;5054040;28;20437;-46
2022/03/18 07:41:35;;;;;;;3.93;3.53;;;9.20;99.90;;;;;;5071506;28;20901;-47
2022/03/18 07:44:05;;;;;;;2.90;2.70;;;9.20;99.90;;;;;;5064212;28;20451;-49
2022/03/18 07:46:34;;;;;;;2.87;2.67;;;9.20;99.90;;;;;;5059667;28;20499;-48
2022/03/18 07:49:02;;;;;;;3.40;2.67;;;9.20;99.90;;;;;;5068151;28;20437;-49
2022/03/18 07:51:30;;;;;;;3.10;2.83;;;9.20;99.90;;;;;;5069505;28;20469;-49
2022/03/18 07:53:58;;;;;;;3.30;2.90;;;9.20;99.90;;;;;;5067757;28;20472;-47
2022/03/18 07:56:27;;;;;;;4.10;2.73;;;9.20;99.90;;;;;;5050442;28;20469;-46
2022/03/18 07:58:55;;;;;;;3.20;2.90;;;9.20;99.90;;;;;;5033195;28;20439;-48
2022/03/18 08:01:25;;;;;;;3.67;3.07;;;9.20;99.90;;;;;;5055828;28;20491;-47
2022/03/18 08:03:54;;;;;;;3.13;2.83;;;9.20;99.90;;;;;;5070653;28;20576;-46
2022/03/18 08:06:22;;;;;;;3.57;2.90;;;9.20;99.90;;;;;;5062814;28;20446;-48
2022/03/18 08:08:50;;;;;;;2.67;2.47;;;9.20;99.90;;;;;;5051619;28;20489;-48
2022/03/18 08:11:19;;;;;;;5.37;3.17;;;9.20;99.90;;;;;;5065039;28;20432;-49
2022/03/18 08:13:50;;;;;;;4.40;3.33;;;9.20;99.90;;;;;;5052119;28;20982;-47
2022/03/18 08:16:19;;;;;;;4.10;3.20;;;9.20;99.90;;;;;;5069862;28;20523;-49
2022/03/18 08:18:48;;;;;;;5.27;2.80;;;9.20;99.90;;;;;;5069594;28;20519;-50
2022/03/18 08:21:17;;;;;;;3.20;2.90;;;9.20;99.90;;;;;;5052684;28;20466;-48
2022/03/18 08:23:45;;;;;;;3.50;2.47;;;9.20;99.90;;;;;;5062176;28;20897;-49
2022/03/18 08:26:13;;;;;;;2.97;2.77;;;9.20;99.90;;;;;;5050979;28;20430;-48
2022/03/18 08:28:43;;;;;;;2.75;2.50;;;9.20;99.90;;;;;;5049391;28;20569;-48
2022/03/18 08:31:11;;;;;;;3.60;2.70;;;9.20;99.90;;;;;;5057209;28;20256;-47
2022/03/18 08:33:39;;;;;;;2.70;2.50;;;9.20;99.90;;;;;;5051274;28;20523;-50
2022/03/18 08:36:08;;;;;;;3.20;2.80;;;9.20;99.90;;;;;;5051502;28;20425;-49
2022/03/18 08:38:40;;;;;;;3.90;2.93;;;9.20;99.90;;;;;;5049902;28;20894;-48
2022/03/18 08:41:08;;;;;;;3.40;2.57;;;9.20;99.90;;;;;;5050613;28;20500;-47
2022/03/18 08:43:37;;;;;;;3.13;2.50;;;9.20;99.90;;;;;;5049324;28;21147;-48
2022/03/18 08:46:06;;;;;;;4.23;3.20;;;9.20;99.90;;;;;;5070047;28;20426;-49
2022/03/18 08:48:35;;;;;;;2.40;2.20;;;9.20;99.90;;;;;;5068416;28;20477;-48
2022/03/18 08:51:04;;;;;;;3.57;2.40;;;9.20;99.90;;;;;;5069447;28;20815;-47
2022/03/18 08:53:33;;;;;;;2.60;2.40;;;9.20;99.90;;;;;;5058306;28;21061;-48
2022/03/18 08:56:07;;;;;;;3.33;3.03;;;9.20;99.90;;;;;;5050675;28;20442;-49
2022/03/18 08:58:38;;;;;;;2.87;2.63;;;9.20;99.90;;;;;;5064247;28;20563;-47
2022/03/18 09:01:11;;;;;;;2.40;2.20;;;9.20;99.90;;;;;;5037831;28;20997;-46
2022/03/18 09:03:40;;;;;;;3.55;2.35;;;9.20;99.90;;;;;;5066435;28;20473;-49
2022/03/18 09:06:08;;;;;;;2.97;2.67;;;9.30;99.90;;;;;;5058494;28;20194;-47
2022/03/18 09:08:38;;;;;;;2.93;2.60;;;9.20;99.90;;;;;;5067668;28;20470;-49
2022/03/18 09:11:08;;;;;;;3.90;2.50;;;9.30;99.90;;;;;;5050208;28;20426;-48
2022/03/18 09:13:36;;;;;;;3.20;2.57;;;9.30;99.90;;;;;;5058334;28;20466;-47
2022/03/18 09:16:05;;;;;;;2.67;2.40;;;9.20;99.90;;;;;;5060781;28;20438;-49
2022/03/18 09:18:53;;;;;;;2.63;2.27;;;9.20;99.90;;;;;;5052451;28;20643;-47
2022/03/18 09:21:21;;;;;;;3.67;2.80;;;9.20;99.90;;;;;;5052227;28;20442;-48
2022/03/18 09:23:51;;;;;;;2.92;2.15;;;9.20;99.90;;;;;;5069283;28;20551;-47
2022/03/18 09:26:19;;;;;;;2.63;2.30;;;9.20;99.90;;;;;;5066688;28;20255;-47
2022/03/18 09:28:48;;;;;;;2.83;2.28;;;9.30;99.90;;;;;;5066948;28;20218;-48
2022/03/18 09:31:16;;;;;;;3.08;2.20;;;9.30;99.90;;;;;;5070358;28;20615;-47
2022/03/18 09:33:46;;;;;;;2.60;2.23;;;9.30;99.90;;;;;;5051391;28;20220;-47
2022/03/18 09:36:18;;;;;;;2.27;2.00;;;9.30;99.90;;;;;;5055832;28;20854;-47
2022/03/18 09:38:48;;;;;;;3.30;3.03;;;9.30;99.90;;;;;;5050999;28;20451;-48
2022/03/18 09:41:18;;;;;;;3.30;2.30;;;9.30;99.90;;;;;;5052829;28;20442;-48
2022/03/18 09:43:46;;;;;;;2.70;2.50;;;9.30;99.90;;;;;;5069155;28;20554;-47
2022/03/18 09:46:17;;;;;;;2.63;2.27;;;9.30;99.90;;;;;;5060373;28;20689;-48
2022/03/18 09:49:00;;;;;;;4.77;2.00;;;9.20;99.90;;;;;;5065530;28;20555;-45
2022/03/18 09:51:29;;;;;;;3.63;2.00;;;9.20;99.90;;;;;;5052235;28;20454;-46
2022/03/18 09:54:29;;;;;;;2.40;2.07;;;9.30;99.90;;;;;;5064652;28;20532;-49
2022/03/18 09:56:59;;;;;;;3.23;2.40;;;9.20;99.90;;;;;;5068609;28;20495;-49
2022/03/18 09:59:28;;;;;;;2.17;1.97;;;9.20;99.90;;;;;;5068324;28;20820;-48
2022/03/18 10:02:28;;;;;;;1.80;1.70;;;9.20;99.90;;;;;;5068500;28;20474;-46
2022/03/18 10:04:58;;;;;;;2.83;2.30;;;9.20;99.90;;;;;;5068956;28;20494;-47
2022/03/18 10:07:27;;;;;;;2.67;1.85;;;9.30;99.90;;;;;;5055909;28;20477;-46
2022/03/18 10:10:08;;;;;;;2.45;2.25;;;9.30;99.90;;;;;;5049095;28;20238;-49
2022/03/18 10:12:40;;;;;;;3.13;2.28;;;9.30;99.90;;;;;;5052566;28;20251;-48
2022/03/18 10:15:14;;;;;;;2.47;2.03;;;9.30;99.90;;;;;;5036559;28;20202;-46
2022/03/18 10:17:45;;;;;;;3.03;2.75;;;9.30;99.90;;;;;;5052745;28;20737;-48
2022/03/18 10:20:32;;;;;;;2.50;2.30;;;9.30;99.90;;;;;;5053305;28;20199;-46
2022/03/18 10:23:05;;;;;;;2.60;2.17;;;9.30;99.90;;;;;;5069137;28;20476;-47
2022/03/18 10:25:40;;;;;;;4.30;2.97;;;9.20;99.90;;;;;;5062379;28;20485;-48
2022/03/18 10:28:11;;;;;;;3.03;2.27;;;9.30;99.90;;;;;;5052850;28;20461;-49
2022/03/18 10:30:39;;;;;;;2.15;2.05;;;9.20;99.90;;;;;;5058924;28;20443;-49
2022/03/18 10:33:13;;;;;;;3.05;2.00;;;9.20;99.90;;;;;;5085355;28;20605;-47
2022/03/18 10:38:33;;;;;;;2.47;1.80;;;9.20;99.80;;;;;;5068721;28;20563;-48
2022/03/18 10:41:07;;;;;;;2.30;2.10;;;9.20;99.80;;;;;;5072551;28;20473;-47
2022/03/18 10:43:53;;;;;;;2.60;1.90;;;9.20;99.90;;;;;;5053213;28;21076;-49
2022/03/18 10:46:22;;;;;;;2.00;1.80;;;9.20;99.90;;;;;;5052199;28;20450;-47
2022/03/18 10:49:04;;;;;;;2.10;1.90;;;9.20;99.90;;;;;;5050615;28;20457;-47
2022/03/18 10:51:34;;;;;;;4.05;2.00;;;9.20;99.90;;;;;;5055513;28;20444;-47
2022/03/18 10:54:02;;;;;;;3.07;2.10;;;9.20;99.90;;;;;;5071530;28;20188;-46
2022/03/18 10:56:30;;;;;;;2.55;2.20;;;9.20;99.90;;;;;;5059449;28;20529;-48
2022/03/18 10:59:00;;;;;;;2.33;1.50;;;9.20;99.90;;;;;;5051821;28;20740;-47
2022/03/18 11:01:31;;;;;;;2.45;2.25;;;9.20;99.90;;;;;;5061969;28;20191;-48
2022/03/18 11:04:00;;;;;;;2.40;2.20;;;9.20;99.90;;;;;;5055797;28;20215;-49
2022/03/18 11:06:28;;;;;;;3.50;2.40;;;9.30;99.90;;;;;;5061077;28;20843;-47
2022/03/18 11:08:57;;;;;;;4.00;2.60;;;9.30;99.30;;;;;;5063089;28;20260;-48
2022/03/18 11:11:27;;;;;;;2.67;2.47;;;9.30;99.20;;;;;;5051546;28;20520;-48
2022/03/18 11:14:02;;;;;;;5.50;3.33;;;9.30;98.90;;;;;;5051683;28;20516;-48
2022/03/18 11:16:34;;;;;;;4.70;3.00;;;9.30;98.90;;;;;;5070619;28;20442;-47
2022/03/18 11:19:05;;;;;;;2.90;2.10;;;9.30;99.00;;;;;;5071175;28;20415;-48
2022/03/18 11:21:38;;;;;;;2.33;2.10;;;9.30;99.10;;;;;;5070338;28;20453;-49
2022/03/18 11:24:11;;;;;;;2.53;2.20;;;9.30;99.20;;;;;;5070616;28;20738;-48
2022/03/18 11:26:46;;;;;;;5.57;2.60;;;9.20;99.20;;;;;;5071063;28;20463;-50
2022/03/18 11:29:23;;;;;;;2.90;2.47;;;9.30;99.20;;;;;;5069030;28;20449;-47
2022/03/18 11:32:20;;;;;;;4.80;2.83;;;9.30;99.30;;;;;;5070338;28;20612;-46
2022/03/18 11:34:51;;;;;;;3.47;2.20;;;9.20;99.40;;;;;;5053207;28;20185;-46
2022/03/18 11:37:20;;;;;;;2.93;2.17;;;9.20;99.40;;;;;;5059631;28;20630;-48
2022/03/18 11:39:49;;;;;;;3.73;2.47;;;9.20;99.40;;;;;;5071052;28;20437;-48
2022/03/18 11:42:21;;;;;;;4.43;2.00;;;9.20;99.40;;;;;;5067318;28;20480;-46
2022/03/18 11:44:58;;;;;;;2.50;2.27;;;9.20;99.40;;;;;;5063612;28;20554;-49
2022/03/18 11:47:44;;;;;;;3.00;2.70;;;9.20;99.50;;;;;;5059419;28;21053;-48
2022/03/18 11:50:45;;;;;;;3.35;2.35;;;9.20;99.40;;;;;;5049289;28;20435;-47
2022/03/18 11:53:35;;;;;;;2.57;2.30;;;9.20;98.50;;;;;;5044388;28;20311;-47
2022/03/18 11:56:12;;;;;;;2.53;2.33;;;9.20;98.40;;;;;;5051001;28;20839;-50
2022/03/18 11:58:40;;;;;;;2.77;2.00;;;9.20;98.40;;;;;;5065647;28;20215;-48
2022/03/18 12:01:39;;;;;;;2.73;2.40;;;9.30;98.50;;;;;;5064456;28;20987;-50
2022/03/18 12:04:08;;;;;;;3.03;2.13;;;9.30;98.70;;;;;;5064961;28;21001;-50
2022/03/18 12:07:27;;;;;;;3.00;2.80;;;9.30;98.90;;;;;;5063579;28;21226;-49
2022/03/18 12:09:58;;;;;;;2.67;2.13;;;9.30;98.40;;;;;;5058468;28;20432;-47
2022/03/18 12:12:30;;;;;;;2.50;1.80;;;9.30;98.80;;;;;;5055684;28;21212;-45
2022/03/18 12:15:02;;;;;;;3.57;2.37;;;9.30;98.70;;;;;;5064670;28;20427;-49
2022/03/18 12:17:39;;;;;;;3.17;2.47;;;9.30;99.00;;;;;;5057477;28;20476;-48
2022/03/18 12:20:09;;;;;;;3.40;1.77;;;9.30;98.50;;;;;;5051715;28;20434;-49
2022/03/18 12:22:39;;;;;;;9.60;2.87;;;9.30;98.50;;;;;;5059862;28;20480;-48
2022/03/18 12:25:08;;;;;;;2.57;2.37;;;9.40;96.60;;;;;;5050371;28;20461;-46
2022/03/18 12:27:39;;;;;;;2.60;2.30;;;9.40;96.80;;;;;;5059152;28;20473;-49
2022/03/18 12:30:09;;;;;;;4.77;2.00;;;9.40;96.30;;;;;;5060447;28;20494;-47
2022/03/18 12:32:42;;;;;;;2.70;1.93;;;9.40;96.40;;;;;;5055387;28;20477;-46
2022/03/18 12:35:10;;;;;;;2.20;2.00;;;9.40;96.60;;;;;;5057911;28;20427;-49
2022/03/18 12:37:40;;;;;;;3.40;2.03;;;9.40;96.70;;;;;;5050344;28;20493;-47
2022/03/18 12:40:11;;;;;;;3.00;2.00;;;9.40;96.90;;;;;;5063687;28;21004;-48
2022/03/18 12:42:49;;;;;;;2.33;1.90;;;9.40;97.10;;;;;;5053930;28;20477;-47
2022/03/18 12:45:27;;;;;;;2.20;1.77;;;9.40;97.40;;;;;;5059765;28;20536;-48
2022/03/18 12:47:58;;;;;;;4.37;2.20;;;9.40;97.30;;;;;;5059778;28;20480;-47
2022/03/18 12:50:28;;;;;;;3.47;2.20;;;9.40;96.70;;;;;;5068578;28;20797;-49
2022/03/18 12:52:57;;;;;;;5.40;2.47;;;9.40;96.70;;;;;;5068244;28;20563;-47
2022/03/18 12:55:26;;;;;;;4.67;2.20;;;9.40;96.40;;;;;;5065367;28;20432;-49
2022/03/18 12:58:06;;;;;;;4.70;2.17;;;9.40;96.50;;;;;;5052151;28;20506;-48
2022/03/18 13:00:39;;;;;;;2.90;2.33;;;9.40;96.70;;;;;;5063162;28;20859;-45
2022/03/18 13:03:16;;;;;;;4.03;2.43;;;9.40;96.90;;;;;;5053446;28;20514;-48
2022/03/18 13:05:46;;;;;;;3.50;2.50;;;9.50;97.10;;;;;;5050822;28;20464;-47
2022/03/18 13:08:16;;;;;;;2.87;1.77;;;9.50;97.00;;;;;;5050234;28;20522;-47
2022/03/18 13:10:54;;;;;;;2.20;2.00;;;9.50;97.00;;;;;;5067527;28;20945;-46
2022/03/18 13:13:22;;;;;;;2.53;1.60;;;9.50;97.00;;;;;;5064409;28;20988;-49
2022/03/18 13:15:58;;;;;;;5.60;2.43;;;9.50;97.20;;;;;;5066842;28;20957;-47
2022/03/18 13:18:31;;;;;;;3.90;2.00;;;9.50;97.40;;;;;;5061637;28;20470;-47
2022/03/18 13:21:00;;;;;;;4.33;2.10;;;9.50;97.40;;;;;;5061050;28;20442;-48
2022/03/18 13:23:29;;;;;;;3.50;1.63;;;9.50;96.40;;;;;;5049798;28;20559;-49
2022/03/18 13:25:58;;;;;;;4.13;2.17;;;9.60;95.50;;;;;;5060264;28;20457;-47
2022/03/18 13:28:27;;;;;;;1.63;1.43;;;9.60;94.20;;;;;;5069565;28;21053;-49